Time;durP1;ratioP1;P1;durP2;ratioP2;P2;SDS_P1;SDS_P2;PMS_P1;PMS_P2;Temp;Humidity;BMP_temperature;BMP_pressure;BME280_temperature;BME280_humidity;BME280_pressure;Samples;Min_cycle;Max_cycle;Signal;HPM_P1;HPM_P2
2022/09/25 00:02:01;;;;;;;;;;;16.10;99.90;;;;;;5095740;28;19944;-81
2022/09/25 00:04:28;;;;;;;;;;;16.10;99.90;;;;;;5095898;28;20380;-81
2022/09/25 00:06:54;;;;;;;;;;;16.20;99.90;;;;;;5093917;28;19916;-84
2022/09/25 00:09:22;;;;;;;;;;;16.10;99.90;;;;;;5095556;28;19908;-84
2022/09/25 00:11:47;;;;;;;;;;;16.20;99.90;;;;;;5095485;28;19939;-79
2022/09/25 00:14:13;;;;;;;;;;;16.00;99.90;;;;;;5095859;28;19978;-84
2022/09/25 00:16:38;;;;;;;;;;;15.90;99.90;;;;;;5095614;28;19931;-85
2022/09/25 00:21:52;;;;;;;;;;;16.00;99.90;;;;;;5095300;28;19999;-85
2022/09/25 00:24:18;;;;;;;;;;;16.00;99.90;;;;;;5095310;28;19915;-83
2022/09/25 00:26:44;;;;;;;;;;;15.90;99.90;;;;;;5095195;28;19965;-85
2022/09/25 00:29:15;;;;;;;;;;;15.80;99.90;;;;;;5095179;28;19908;-81
2022/09/25 00:31:40;;;;;;;;;;;16.00;99.90;;;;;;5095172;28;20368;-82
2022/09/25 00:34:06;;;;;;;;;;;16.00;99.90;;;;;;5095368;28;19914;-81
2022/09/25 00:36:32;;;;;;;;;;;16.10;99.90;;;;;;5095261;28;19909;-83
2022/09/25 00:38:57;;;;;;;;;;;16.10;99.90;;;;;;5095032;28;19916;-82
2022/09/25 00:41:24;;;;;;;;;;;16.20;99.90;;;;;;5094957;28;20296;-80
2022/09/25 00:43:51;;;;;;;;;;;16.20;99.90;;;;;;5095394;28;19970;-83
2022/09/25 00:46:21;;;;;;;;;;;16.20;99.90;;;;;;5094761;28;20391;-84
2022/09/25 00:49:06;;;;;;;;;;;16.10;99.90;;;;;;5094542;28;19920;-80
2022/09/25 00:51:40;;;;;;;;;;;16.00;99.90;;;;;;5079561;28;19912;-81
2022/09/25 00:54:07;;;;;;;;;;;16.10;99.90;;;;;;5094814;28;19908;-83
2022/09/25 00:56:36;;;;;;;;;;;16.10;99.90;;;;;;5094629;28;20357;-79
2022/09/25 00:59:02;;;;;;;;;;;16.00;99.90;;;;;;5094889;28;19908;-80
2022/09/25 01:01:27;;;;;;;;;;;16.00;99.90;;;;;;5094619;28;20407;-83
2022/09/25 01:03:54;;;;;;;;;;;16.00;99.90;;;;;;5094763;28;19912;-82
2022/09/25 01:06:21;;;;;;;;;;;16.10;99.90;;;;;;5094418;28;19916;-82
2022/09/25 01:08:46;;;;;;;;;;;16.10;99.90;;;;;;5094376;28;20376;-84
2022/09/25 01:11:12;;;;;;;;;;;15.90;99.90;;;;;;5094395;28;19915;-82
2022/09/25 01:13:38;;;;;;;;;;;15.90;99.90;;;;;;5094530;28;20333;-85
2022/09/25 01:16:16;;;;;;;;;;;16.00;99.90;;;;;;5093015;28;20349;-82
2022/09/25 01:18:52;;;;;;;;;;;15.90;99.90;;;;;;5093861;28;20048;-80
2022/09/25 01:21:17;;;;;;;;;;;15.90;99.90;;;;;;5094535;28;19947;-77
2022/09/25 01:23:50;;;;;;;;;;;15.70;99.90;;;;;;5094190;28;19954;-78
2022/09/25 01:26:30;;;;;;;;;;;15.70;99.90;;;;;;5092530;28;19967;-79
2022/09/25 01:29:03;;;;;;;;;;;15.90;99.90;;;;;;5094216;28;19908;-78
2022/09/25 01:31:33;;;;;;;;;;;16.00;99.90;;;;;;5092824;28;20322;-81
2022/09/25 01:34:02;;;;;;;;;;;16.00;99.90;;;;;;5094243;28;19908;-78
2022/09/25 01:36:32;;;;;;;;;;;15.90;99.90;;;;;;5093996;28;19908;-82
2022/09/25 01:39:21;;;;;;;;;;;15.90;99.90;;;;;;5093977;28;19915;-77
2022/09/25 01:41:53;;;;;;;;;;;15.90;99.90;;;;;;5085591;28;20003;-80
2022/09/25 01:44:28;;;;;;;;;;;15.90;99.90;;;;;;5094401;28;19963;-78
2022/09/25 01:46:55;;;;;;;;;;;15.80;99.90;;;;;;5093823;28;19916;-81
2022/09/25 01:49:23;;;;;;;;;;;15.90;99.90;;;;;;5093628;28;20375;-80
2022/09/25 01:51:52;;;;;;;;;;;16.00;99.90;;;;;;5092970;28;20432;-79
2022/09/25 01:54:23;;;;;;;;;;;16.00;99.90;;;;;;5093817;28;19908;-78
2022/09/25 01:56:52;;;;;;;;;;;16.00;99.90;;;;;;5093781;28;20322;-81
2022/09/25 01:59:44;;;;;;;;;;;15.90;99.90;;;;;;5093736;28;19908;-81
2022/09/25 02:02:14;;;;;;;;;;;15.90;99.90;;;;;;5090596;28;20299;-79
2022/09/25 02:04:45;;;;;;;;;;;15.80;99.90;;;;;;5093703;28;19908;-78
2022/09/25 02:07:15;;;;;;;;;;;15.80;99.90;;;;;;5093620;28;19966;-80
2022/09/25 02:09:44;;;;;;;;;;;15.80;99.90;;;;;;5093961;28;19908;-78
2022/09/25 02:12:16;;;;;;;;;;;15.80;99.90;;;;;;5093633;28;19908;-79
2022/09/25 02:14:48;;;;;;;;;;;15.80;99.90;;;;;;5093656;28;19953;-79
2022/09/25 02:20:30;;;;;;;;;;;15.70;99.90;;;;;;5093592;28;20000;-80
2022/09/25 02:22:52;;;;;;;;;;;15.70;99.90;;;;;;5093434;28;19957;-81
2022/09/25 02:25:30;;;;;;;;;;;15.70;99.90;;;;;;5093547;28;19947;-79
2022/09/25 02:27:56;;;;;;;;;;;15.60;99.90;;;;;;5093802;28;19912;-82
2022/09/25 02:30:21;;;;;;;;;;;15.60;99.90;;;;;;5096150;28;19957;-78
2022/09/25 02:32:47;;;;;;;;;;;15.60;99.90;;;;;;5097414;28;19908;-79
2022/09/25 02:35:12;;;;;;;;;;;15.60;99.90;;;;;;5097393;28;19916;-80
2022/09/25 02:37:38;;;;;;;;;;;15.70;99.90;;;;;;5097395;28;19915;-80
2022/09/25 02:40:04;;;;;;;;;;;15.70;99.90;;;;;;5097311;28;20012;-81
2022/09/25 02:42:37;;;;;;;;;;;15.70;99.90;;;;;;5098171;28;19908;-81
2022/09/25 02:45:11;;;;;;;;;;;15.60;99.90;;;;;;5097275;28;19912;-80
2022/09/25 02:47:55;;;;;;;;;;;15.70;99.90;;;;;;5097077;28;19912;-82
2022/09/25 02:50:24;;;;;;;;;;;15.70;99.90;;;;;;5057262;28;19921;-79
2022/09/25 02:52:59;;;;;;;;;;;15.70;99.90;;;;;;5056968;28;19962;-80
2022/09/25 02:55:35;;;;;;;;;;;15.70;99.90;;;;;;5056845;28;20009;-78
2022/09/25 02:58:05;;;;;;;;;;;15.60;99.90;;;;;;5056673;28;20288;-80
2022/09/25 03:00:33;;;;;;;;;;;15.60;99.90;;;;;;5055361;28;20342;-82
2022/09/25 03:02:59;;;;;;;;;;;15.70;99.90;;;;;;5056714;28;20400;-77
2022/09/25 03:05:25;;;;;;;;;;;15.60;99.90;;;;;;5055328;28;19909;-80
2022/09/25 03:10:57;;;;;;;;;;;15.50;99.90;;;;;;5054532;28;19963;-80
2022/09/25 03:13:26;;;;;;;;;;;15.60;99.90;;;;;;5054479;28;19944;-83
2022/09/25 03:15:57;;;;;;;;;;;15.70;99.90;;;;;;5055317;28;19909;-82
2022/09/25 03:18:24;;;;;;;;;;;15.60;99.90;;;;;;5056356;28;19913;-81
2022/09/25 03:20:49;;;;;;;;;;;15.70;99.90;;;;;;5056474;28;19999;-82
2022/09/25 03:23:15;;;;;;;;;;;15.70;99.90;;;;;;5056381;28;20352;-81
2022/09/25 03:25:41;;;;;;;;;;;15.70;99.90;;;;;;5056119;28;19913;-80
2022/09/25 03:28:10;;;;;;;;;;;15.70;99.90;;;;;;5056231;28;19944;-81
2022/09/25 03:30:38;;;;;;;;;;;15.70;99.90;;;;;;5056583;28;20271;-80
2022/09/25 03:33:04;;;;;;;;;;;15.50;99.90;;;;;;5056217;28;19913;-82
2022/09/25 03:35:29;;;;;;;;;;;15.60;99.90;;;;;;5056053;28;19991;-81
2022/09/25 03:37:55;;;;;;;;;;;15.60;99.90;;;;;;5055913;28;19912;-80
2022/09/25 03:40:20;;;;;;;;;;;15.70;99.90;;;;;;5055261;28;19916;-78
2022/09/25 03:42:46;;;;;;;;;;;15.70;99.90;;;;;;5056595;28;20396;-80
2022/09/25 03:45:12;;;;;;;;;;;15.80;99.90;;;;;;5055768;28;20340;-78
2022/09/25 03:47:37;;;;;;;;;;;15.80;99.90;;;;;;5055796;28;19955;-79
2022/09/25 03:50:03;;;;;;;;;;;15.70;99.90;;;;;;5076109;28;19971;-80
2022/09/25 03:52:28;;;;;;;;;;;15.70;99.90;;;;;;5074420;28;20361;-82
2022/09/25 03:54:54;;;;;;;;;;;15.60;99.90;;;;;;5075746;28;19916;-78
2022/09/25 03:57:19;;;;;;;;;;;15.80;99.90;;;;;;5075633;28;19908;-80
2022/09/25 03:59:45;;;;;;;;;;;15.60;99.90;;;;;;5075993;28;19915;-78
2022/09/25 04:02:11;;;;;;;;;;;15.60;99.90;;;;;;5075529;28;19908;-79
2022/09/25 04:04:37;;;;;;;;;;;15.70;99.90;;;;;;5075506;28;19999;-80
2022/09/25 04:07:02;;;;;;;;;;;15.60;99.90;;;;;;5075480;28;19912;-77
2022/09/25 04:09:28;;;;;;;;;;;15.70;99.90;;;;;;5075422;28;19909;-81
2022/09/25 04:11:54;;;;;;;;;;;15.60;99.90;;;;;;5075359;28;19931;-81
2022/09/25 04:14:20;;;;;;;;;;;15.50;99.90;;;;;;5075248;28;20449;-80
2022/09/25 04:16:46;;;;;;;;;;;15.60;99.90;;;;;;5075212;28;19912;-78
2022/09/25 04:19:11;;;;;;;;;;;15.50;99.90;;;;;;5073895;28;19912;-77
2022/09/25 04:21:37;;;;;;;;;;;15.50;99.90;;;;;;5075557;28;19954;-79
2022/09/25 04:26:52;;;;;;;;;;;15.60;99.90;;;;;;5074904;28;19919;-83
2022/09/25 04:29:20;;;;;;;;;;;15.60;99.90;;;;;;5073418;28;19957;-81
2022/09/25 04:33:44;;;;;;;;;;;15.50;99.90;;;;;;5075072;28;19908;-78
2022/09/25 04:34:31;;;;;;;;;;;15.50;99.90;;;;;;5074506;28;19916;-77
2022/09/25 04:36:56;;;;;;;;;;;15.50;99.90;;;;;;5074949;28;19909;-80
2022/09/25 04:39:22;;;;;;;;;;;15.60;99.90;;;;;;5074761;28;19909;-78
2022/09/25 04:41:47;;;;;;;;;;;15.60;99.90;;;;;;5074705;28;20319;-78
2022/09/25 04:44:13;;;;;;;;;;;15.60;99.90;;;;;;5075123;28;19908;-83
2022/09/25 04:46:38;;;;;;;;;;;15.60;99.90;;;;;;5074542;28;19912;-82
2022/09/25 04:49:05;;;;;;;;;;;15.50;99.90;;;;;;5086482;28;19974;-78
2022/09/25 04:51:30;;;;;;;;;;;15.50;99.90;;;;;;5094066;28;19908;-80
2022/09/25 04:53:56;;;;;;;;;;;15.40;99.90;;;;;;5094500;28;19908;-82
2022/09/25 04:56:22;;;;;;;;;;;15.40;99.90;;;;;;5094725;28;19908;-80
2022/09/25 04:58:48;;;;;;;;;;;15.50;99.90;;;;;;5094682;28;19908;-81
2022/09/25 05:01:15;;;;;;;;;;;15.50;99.90;;;;;;5094714;28;20003;-81
2022/09/25 05:03:40;;;;;;;;;;;15.50;99.90;;;;;;5095068;28;19933;-78
2022/09/25 05:06:06;;;;;;;;;;;15.50;99.90;;;;;;5093145;28;20368;-81
2022/09/25 05:08:31;;;;;;;;;;;15.50;99.90;;;;;;5094508;28;19909;-80
2022/09/25 05:10:57;;;;;;;;;;;15.40;99.90;;;;;;5093146;28;19908;-80
2022/09/25 05:13:23;;;;;;;;;;;15.50;99.90;;;;;;5094441;28;19912;-81
2022/09/25 05:15:49;;;;;;;;;;;15.50;99.90;;;;;;5093123;28;19908;-76
2022/09/25 05:18:19;;;;;;;;;;;15.60;99.90;;;;;;5094413;28;19915;-81
2022/09/25 05:20:45;;;;;;;;;;;15.50;99.90;;;;;;5094535;28;19915;-79
2022/09/25 05:23:11;;;;;;;;;;;15.40;99.90;;;;;;5094486;28;19908;-77
2022/09/25 05:25:36;;;;;;;;;;;15.40;99.90;;;;;;5094218;28;19908;-77
2022/09/25 05:28:02;;;;;;;;;;;15.40;99.90;;;;;;5094605;28;19946;-80
2022/09/25 05:30:29;;;;;;;;;;;15.40;99.90;;;;;;5094309;28;20280;-80
2022/09/25 05:32:58;;;;;;;;;;;15.50;99.90;;;;;;5094396;28;19908;-78
2022/09/25 05:35:24;;;;;;;;;;;15.50;99.90;;;;;;5094054;28;19916;-82
2022/09/25 05:37:49;;;;;;;;;;;15.50;99.90;;;;;;5094016;28;20427;-81
2022/09/25 05:40:15;;;;;;;;;;;15.30;99.90;;;;;;5094028;28;19943;-78
2022/09/25 05:42:47;;;;;;;;;;;15.30;99.90;;;;;;5094132;28;20014;-82
2022/09/25 05:45:14;;;;;;;;;;;15.30;99.90;;;;;;5094166;28;20007;-81
2022/09/25 05:47:40;;;;;;;;;;;15.30;99.90;;;;;;5093813;28;20017;-81
2022/09/25 05:50:06;;;;;;;;;;;15.30;99.90;;;;;;5092612;28;19912;-78
2022/09/25 05:52:32;;;;;;;;;;;15.50;99.90;;;;;;5093928;28;19909;-84
2022/09/25 05:54:57;;;;;;;;;;;15.40;99.90;;;;;;5093872;28;19908;-80
2022/09/25 05:57:23;;;;;;;;;;;15.50;99.90;;;;;;5093830;28;19916;-82
2022/09/25 05:59:48;;;;;;;;;;;15.50;99.90;;;;;;5094055;28;20280;-81
2022/09/25 06:02:14;;;;;;;;;;;15.50;99.90;;;;;;5093778;28;19908;-80
2022/09/25 06:04:40;;;;;;;;;;;15.40;99.90;;;;;;5097210;28;19915;-81
2022/09/25 06:07:06;;;;;;;;;;;15.40;99.90;;;;;;5097863;28;19937;-81
2022/09/25 06:09:31;;;;;;;;;;;15.30;99.90;;;;;;5098195;28;19908;-82
2022/09/25 06:11:57;;;;;;;;;;;15.40;99.90;;;;;;5097887;28;20417;-81
2022/09/25 06:14:23;;;;;;;;;;;15.40;99.90;;;;;;5097909;28;19915;-82
2022/09/25 06:16:51;;;;;;;;;;;15.50;99.90;;;;;;5096465;28;19908;-79
2022/09/25 06:19:17;;;;;;;;;;;15.50;99.90;;;;;;5097917;28;20322;-80
2022/09/25 06:21:43;;;;;;;;;;;15.50;99.90;;;;;;5097746;28;19915;-79
2022/09/25 06:24:12;;;;;;;;;;;15.50;99.90;;;;;;5097664;28;19908;-81
2022/09/25 06:26:38;;;;;;;;;;;15.40;99.90;;;;;;5097615;28;19916;-78
2022/09/25 06:29:04;;;;;;;;;;;15.50;99.90;;;;;;5097566;28;19920;-82
2022/09/25 06:31:29;;;;;;;;;;;15.50;99.90;;;;;;5097553;28;19908;-78
2022/09/25 06:33:55;;;;;;;;;;;15.70;99.90;;;;;;5097440;28;19912;-80
2022/09/25 06:36:21;;;;;;;;;;;15.70;99.90;;;;;;5097560;28;19947;-82
2022/09/25 06:38:48;;;;;;;;;;;15.70;99.90;;;;;;5097341;28;20398;-80
2022/09/25 06:41:13;;;;;;;;;;;15.70;99.90;;;;;;5097308;28;19958;-78
2022/09/25 06:43:39;;;;;;;;;;;15.60;99.90;;;;;;5097775;28;20319;-80
2022/09/25 06:46:05;;;;;;;;;;;15.50;99.90;;;;;;5097107;28;19912;-81
2022/09/25 06:48:30;;;;;;;;;;;15.50;99.90;;;;;;5096940;28;20411;-79
2022/09/25 06:50:58;;;;;;;;;;;15.40;99.90;;;;;;5097373;28;19908;-81
2022/09/25 06:53:24;;;;;;;;;;;15.60;99.90;;;;;;5097098;28;19919;-79
2022/09/25 06:55:50;;;;;;;;;;;15.50;99.90;;;;;;5097076;28;20053;-81
2022/09/25 06:58:17;;;;;;;;;;;15.70;99.90;;;;;;5097119;28;19940;-80
2022/09/25 07:00:46;;;;;;;;;;;15.80;99.90;;;;;;5097029;28;19908;-79
2022/09/25 07:05:58;;;;;;;;;;;15.90;99.90;;;;;;5096669;28;20500;-80
2022/09/25 07:08:23;;;;;;;;;;;16.10;99.90;;;;;;5096922;28;19919;-83
2022/09/25 07:10:50;;;;;;;;;;;16.20;99.90;;;;;;5096813;28;19908;-79
2022/09/25 07:13:16;;;;;;;;;;;16.40;99.90;;;;;;5097113;28;19912;-80
2022/09/25 07:15:48;;;;;;;;;;;16.20;99.90;;;;;;5095816;28;20013;-81
2022/09/25 07:18:14;;;;;;;;;;;16.20;99.90;;;;;;5096646;28;19908;-80
2022/09/25 07:20:39;;;;;;;;;;;16.20;99.90;;;;;;5098565;28;19954;-81
2022/09/25 07:23:05;;;;;;;;;;;16.50;99.90;;;;;;5097863;28;20003;-80
2022/09/25 07:25:31;;;;;;;;;;;16.60;99.90;;;;;;5096503;28;20367;-79
2022/09/25 07:27:57;;;;;;;;;;;16.90;99.90;;;;;;5096364;28;19912;-78
2022/09/25 07:30:25;;;;;;;;;;;16.90;99.90;;;;;;5096484;28;20420;-77
2022/09/25 07:32:51;;;;;;;;;;;16.90;99.90;;;;;;5096604;28;19915;-81
2022/09/25 07:35:17;;;;;;;;;;;17.00;99.90;;;;;;5096647;28;19909;-80
2022/09/25 07:37:43;;;;;;;;;;;16.80;99.90;;;;;;5096468;28;19908;-81
2022/09/25 07:40:12;;;;;;;;;;;16.90;99.90;;;;;;5096241;28;20288;-78
2022/09/25 07:42:38;;;;;;;;;;;17.10;99.90;;;;;;5096198;28;19908;-81
2022/09/25 07:45:03;;;;;;;;;;;17.30;99.90;;;;;;5096626;28;19912;-81
2022/09/25 07:47:29;;;;;;;;;;;17.20;99.90;;;;;;5096136;28;19920;-83
2022/09/25 07:49:54;;;;;;;;;;;17.40;99.90;;;;;;5095612;28;19920;-78
2022/09/25 07:52:20;;;;;;;;;;;17.40;99.90;;;;;;5096029;28;19947;-81
2022/09/25 07:54:45;;;;;;;;;;;17.70;99.90;;;;;;5095918;28;19908;-81
2022/09/25 07:57:12;;;;;;;;;;;18.00;99.90;;;;;;5095876;28;19908;-82
2022/09/25 07:59:37;;;;;;;;;;;18.10;99.90;;;;;;5095836;28;20288;-82
2022/09/25 08:02:04;;;;;;;;;;;18.50;99.90;;;;;;5095783;28;20007;-82
2022/09/25 08:04:29;;;;;;;;;;;19.00;99.90;;;;;;5095692;28;20012;-84
2022/09/25 08:06:57;;;;;;;;;;;20.20;99.90;;;;;;5095672;28;20386;-81
2022/09/25 08:09:22;;;;;;;;;;;21.90;99.90;;;;;;5095801;28;19958;-83
2022/09/25 08:11:48;;;;;;;;;;;22.90;99.90;;;;;;5095479;28;19908;-82
2022/09/25 08:14:14;;;;;;;;;;;23.60;99.90;;;;;;5095966;28;19919;-81
2022/09/25 08:16:40;;;;;;;;;;;23.90;97.30;;;;;;5095474;28;19916;-84
2022/09/25 08:19:06;;;;;;;;;;;24.40;94.80;;;;;;5095391;28;19908;-79
2022/09/25 08:21:33;;;;;;;;;;;25.10;94.70;;;;;;5093958;28;19999;-79
2022/09/25 08:23:59;;;;;;;;;;;24.70;92.10;;;;;;5095357;28;20450;-81
2022/09/25 08:26:26;;;;;;;;;;;24.10;91.50;;;;;;5095016;28;20399;-79
2022/09/25 08:28:52;;;;;;;;;;;25.10;91.10;;;;;;5095186;28;19908;-82
2022/09/25 08:31:18;;;;;;;;;;;24.70;87.30;;;;;;5095453;28;19915;-80
2022/09/25 08:33:44;;;;;;;;;;;23.60;89.70;;;;;;5095143;28;19935;-81
2022/09/25 08:36:10;;;;;;;;;;;22.80;90.70;;;;;;5095106;28;19991;-80
2022/09/25 08:38:36;;;;;;;;;;;22.10;92.60;;;;;;5095044;28;20407;-81
2022/09/25 08:41:03;;;;;;;;;;;21.80;93.40;;;;;;5095252;28;19908;-80
2022/09/25 08:43:29;;;;;;;;;;;21.70;94.20;;;;;;5095611;28;20003;-79
2022/09/25 08:49:04;;;;;;;;;;;21.70;94.80;;;;;;5094673;28;19974;-81
2022/09/25 08:51:32;;;;;;;;;;;21.20;95.80;;;;;;5095105;28;19999;-81
2022/09/25 08:53:58;;;;;;;;;;;21.30;96.30;;;;;;5094738;28;19908;-82
2022/09/25 08:56:26;;;;;;;;;;;21.30;96.10;;;;;;5094660;28;20376;-82
2022/09/25 08:58:52;;;;;;;;;;;21.00;96.20;;;;;;5094675;28;19987;-80
2022/09/25 09:01:23;;;;;;;;;;;20.90;97.30;;;;;;5094607;28;19947;-84
2022/09/25 09:03:51;;;;;;;;;;;20.70;97.90;;;;;;5094497;28;19908;-81
2022/09/25 09:06:17;;;;;;;;;;;20.70;99.20;;;;;;5094682;28;20014;-82
2022/09/25 09:08:46;;;;;;;;;;;20.80;99.70;;;;;;5094486;28;20387;-80
2022/09/25 09:11:14;;;;;;;;;;;21.10;99.20;;;;;;5095035;28;19908;-84
2022/09/25 09:13:43;;;;;;;;;;;21.10;98.90;;;;;;5093098;28;19908;-81
2022/09/25 09:16:20;;;;;;;;;;;21.10;99.30;;;;;;5094558;28;20391;-83
2022/09/25 09:18:46;;;;;;;;;;;21.00;99.10;;;;;;5094583;28;19908;-82
2022/09/25 09:21:11;;;;;;;;;;;21.20;98.70;;;;;;5094258;28;19908;-80
2022/09/25 09:23:52;;;;;;;;;;;21.20;98.60;;;;;;5094186;28;19908;-78
2022/09/25 09:26:28;;;;;;;;;;;21.00;98.70;;;;;;5094134;28;20388;-79
2022/09/25 09:28:58;;;;;;;;;;;21.00;99.70;;;;;;5094248;28;20064;-83
2022/09/25 09:31:40;;;;;;;;;;;21.10;99.40;;;;;;5094370;28;20384;-80
2022/09/25 09:34:14;;;;;;;;;;;21.20;99.40;;;;;;5094209;28;19915;-80
2022/09/25 09:36:43;;;;;;;;;;;21.50;99.40;;;;;;5094083;28;20354;-80
2022/09/25 09:39:27;;;;;;;;;;;21.60;99.40;;;;;;5093321;28;19908;-84
2022/09/25 09:42:04;;;;;;;;;;;22.00;98.30;;;;;;5093896;28;19961;-81
2022/09/25 09:44:50;;;;;;;;;;;22.40;98.00;;;;;;5094539;28;19908;-82
2022/09/25 09:47:27;;;;;;;;;;;22.10;96.70;;;;;;5094036;28;19912;-80
2022/09/25 09:49:56;;;;;;;;;;;21.90;97.30;;;;;;5093427;28;19960;-82
2022/09/25 09:52:29;;;;;;;;;;;22.50;96.70;;;;;;5093872;28;19999;-79
2022/09/25 09:54:58;;;;;;;;;;;23.00;95.60;;;;;;5093733;28;19909;-79
2022/09/25 09:57:32;;;;;;;;;;;23.60;94.50;;;;;;5093926;28;19912;-83
2022/09/25 10:00:04;;;;;;;;;;;24.30;92.70;;;;;;5093863;28;19916;-81
2022/09/25 10:02:38;;;;;;;;;;;24.80;90.50;;;;;;5093733;28;19908;-80
2022/09/25 10:05:07;;;;;;;;;;;25.20;90.00;;;;;;5093757;28;19962;-78
2022/09/25 10:07:35;;;;;;;;;;;25.30;85.20;;;;;;5093769;28;19960;-80
2022/09/25 10:10:00;;;;;;;;;;;26.00;84.70;;;;;;5093705;28;19908;-81
2022/09/25 10:12:34;;;;;;;;;;;26.90;82.90;;;;;;5093737;28;19915;-82
2022/09/25 10:15:02;;;;;;;;;;;27.60;79.40;;;;;;5093929;28;19935;-79
2022/09/25 10:17:29;;;;;;;;;;;30.70;73.00;;;;;;5093635;28;20432;-81
2022/09/25 10:19:57;;;;;;;;;;;29.90;65.00;;;;;;5094151;28;19991;-80
2022/09/25 10:22:37;;;;;;;;;;;28.50;65.70;;;;;;5092289;28;20380;-82
2022/09/25 10:25:04;;;;;;;;;;;28.60;66.70;;;;;;5094074;28;19987;-83
2022/09/25 10:27:31;;;;;;;;;;;31.00;67.00;;;;;;5093830;28;19916;-82
2022/09/25 10:30:03;;;;;;;;;;;32.20;61.10;;;;;;5093651;28;19931;-82
2022/09/25 10:32:29;;;;;;;;;;;33.70;61.20;;;;;;5093487;28;19915;-83
2022/09/25 10:34:55;;;;;;;;;;;34.50;56.10;;;;;;5093509;28;19908;-84
2022/09/25 10:37:21;;;;;;;;;;;32.30;55.30;;;;;;5093463;28;20447;-80
2022/09/25 10:40:07;;;;;;;;;;;29.80;58.20;;;;;;5093495;28;19909;-81
2022/09/25 10:42:40;;;;;;;;;;;27.60;61.10;;;;;;5093344;28;19908;-81
2022/09/25 10:45:25;;;;;;;;;;;25.90;63.00;;;;;;5093876;28;19908;-83
2022/09/25 10:50:38;;;;;;;;;;;25.00;67.90;;;;;;5096305;28;19997;-81
2022/09/25 10:53:06;;;;;;;;;;;28.60;64.30;;;;;;5097133;28;20376;-81
2022/09/25 10:55:32;;;;;;;;;;;28.40;59.70;;;;;;5097281;28;20261;-80
2022/09/25 10:58:04;;;;;;;;;;;28.20;61.80;;;;;;5097262;28;19908;-78
2022/09/25 11:00:32;;;;;;;;;;;31.20;57.80;;;;;;5097160;28;20417;-82
2022/09/25 11:02:59;;;;;;;;;;;33.90;57.10;;;;;;5096978;28;19908;-82
2022/09/25 11:05:28;;;;;;;;;;;36.70;52.50;;;;;;5096873;28;20022;-85
2022/09/25 11:07:55;;;;;;;;;;;39.30;48.40;;;;;;5096918;28;19958;-83
2022/09/25 11:10:23;;;;;;;;;;;40.80;46.40;;;;;;5096853;28;19915;-80
2022/09/25 11:12:49;;;;;;;;;;;40.00;42.60;;;;;;5096965;28;19908;-80
2022/09/25 11:15:17;;;;;;;;;;;39.10;41.50;;;;;;5097032;28;19951;-81
2022/09/25 11:17:44;;;;;;;;;;;39.00;42.50;;;;;;5096749;28;19930;-79
2022/09/25 11:20:16;;;;;;;;;;;40.20;40.00;;;;;;5096663;28;19908;-80
2022/09/25 11:22:47;;;;;;;;;;;35.70;41.40;;;;;;5096579;28;19931;-85
2022/09/25 11:25:25;;;;;;;;;;;38.50;42.90;;;;;;5096515;28;20041;-84
2022/09/25 11:27:56;;;;;;;;;;;40.60;41.10;;;;;;5096437;28;19912;-84
2022/09/25 11:30:22;;;;;;;;;;;42.00;39.40;;;;;;5096429;28;20362;-81
2022/09/25 11:32:48;;;;;;;;;;;41.20;37.90;;;;;;5094849;28;19908;-78
2022/09/25 11:35:14;;;;;;;;;;;36.80;39.60;;;;;;5096372;28;20292;-81
2022/09/25 11:37:51;;;;;;;;;;;35.10;43.80;;;;;;5096369;28;19915;-84
2022/09/25 11:43:05;;;;;;;;;;;41.40;38.80;;;;;;5096254;28;19916;-80
2022/09/25 11:45:35;;;;;;;;;;;42.60;36.80;;;;;;5096639;28;19908;-81
2022/09/25 11:48:23;;;;;;;;;;;41.60;38.20;;;;;;5095904;28;19973;-83
2022/09/25 11:51:26;;;;;;;;;;;43.40;37.50;;;;;;5096490;28;20323;-84
2022/09/25 11:53:57;;;;;;;;;;;45.40;36.10;;;;;;5033923;28;19915;-85
2022/09/25 11:56:41;;;;;;;;;;;40.80;35.60;;;;;;5085679;28;19912;-82
2022/09/25 11:59:14;;;;;;;;;;;37.90;39.00;;;;;;5096091;28;20412;-83
2022/09/25 12:01:43;;;;;;;;;;;38.80;39.40;;;;;;5095511;28;19908;-82
2022/09/25 12:04:08;;;;;;;;;;;41.80;38.10;;;;;;5095785;28;19974;-81
2022/09/25 12:06:43;;;;;;;;;;;41.30;37.30;;;;;;5095959;28;20345;-80
2022/09/25 12:09:21;;;;;;;;;;;40.00;37.80;;;;;;5096037;28;19908;-79
2022/09/25 12:12:00;;;;;;;;;;;39.00;37.80;;;;;;5095776;28;20284;-81
2022/09/25 12:14:45;;;;;;;;;;;36.70;39.40;;;;;;5096424;28;19915;-82
2022/09/25 12:17:23;;;;;;;;;;;32.90;41.00;;;;;;5095422;28;20407;-81
2022/09/25 12:19:48;;;;;;;;;;;31.80;42.80;;;;;;5095694;28;20007;-80
2022/09/25 12:22:20;;;;;;;;;;;30.30;43.90;;;;;;5095562;28;19943;-83
2022/09/25 12:25:09;;;;;;;;;;;29.90;45.40;;;;;;5095302;28;19960;-82
2022/09/25 12:27:57;;;;;;;;;;;29.60;46.10;;;;;;5066535;28;19951;-82
2022/09/25 12:30:28;;;;;;;;;;;30.00;46.30;;;;;;5095238;28;19912;-85
2022/09/25 12:33:06;;;;;;;;;;;31.00;46.70;;;;;;5095238;28;19908;-82
2022/09/25 12:35:31;;;;;;;;;;;36.50;45.90;;;;;;5095169;28;20265;-80
2022/09/25 12:38:08;;;;;;;;;;;39.60;41.60;;;;;;5095015;28;19919;-78
2022/09/25 12:40:34;;;;;;;;;;;40.90;39.10;;;;;;5095185;28;20384;-84
2022/09/25 12:43:02;;;;;;;;;;;41.40;36.60;;;;;;5094966;28;19915;-81
2022/09/25 12:45:34;;;;;;;;;;;37.10;38.40;;;;;;5095504;28;19994;-78
2022/09/25 12:48:08;;;;;;;;;;;33.70;41.10;;;;;;5094889;28;19931;-80
2022/09/25 12:50:56;;;;;;;;;;;31.80;43.30;;;;;;5095230;28;19916;-81
2022/09/25 12:53:26;;;;;;;;;;;30.70;44.90;;;;;;5094884;28;19909;-82
2022/09/25 12:55:58;;;;;;;;;;;30.00;46.20;;;;;;5095220;28;19908;-80
2022/09/25 12:58:36;;;;;;;;;;;29.70;47.30;;;;;;5094670;28;19919;-81
2022/09/25 13:01:14;;;;;;;;;;;28.70;48.70;;;;;;5094686;28;19908;-80
2022/09/25 13:03:54;;;;;;;;;;;28.30;48.90;;;;;;5095080;28;19908;-84
2022/09/25 13:06:38;;;;;;;;;;;27.80;49.70;;;;;;5094868;28;19915;-84
2022/09/25 13:09:13;;;;;;;;;;;27.40;51.20;;;;;;5094488;28;19915;-81
2022/09/25 13:11:44;;;;;;;;;;;27.50;51.80;;;;;;5094975;28;20402;-82
2022/09/25 13:14:22;;;;;;;;;;;27.20;52.40;;;;;;5093512;28;19919;-83
2022/09/25 13:16:48;;;;;;;;;;;27.20;52.40;;;;;;5094419;28;19908;-82
2022/09/25 13:19:24;;;;;;;;;;;27.10;53.30;;;;;;5094003;28;19919;-81
2022/09/25 13:21:50;;;;;;;;;;;27.20;53.40;;;;;;5094539;28;20265;-85
2022/09/25 13:24:16;;;;;;;;;;;27.40;52.90;;;;;;5094252;28;20002;-80
2022/09/25 13:26:52;;;;;;;;;;;28.40;52.80;;;;;;5094272;28;19919;-83
2022/09/25 13:29:21;;;;;;;;;;;29.10;51.90;;;;;;5094661;28;20004;-84
2022/09/25 13:31:47;;;;;;;;;;;30.30;50.90;;;;;;5094199;28;19912;-81
2022/09/25 13:34:14;;;;;;;;;;;30.90;48.10;;;;;;5094221;28;19908;-80
2022/09/25 13:36:47;;;;;;;;;;;31.90;47.90;;;;;;5094108;28;19908;-80
2022/09/25 13:42:03;;;;;;;;;;;39.30;40.70;;;;;;5093731;28;19985;-78
2022/09/25 13:44:41;;;;;;;;;;;38.40;41.10;;;;;;5094420;28;20357;-81
2022/09/25 13:47:25;;;;;;;;;;;43.30;39.00;;;;;;5094268;28;19993;-83
2022/09/25 13:50:05;;;;;;;;;;;39.30;37.90;;;;;;5093478;28;20032;-79
2022/09/25 13:52:37;;;;;;;;;;;34.00;41.30;;;;;;5093997;28;19917;-77
2022/09/25 13:55:11;;;;;;;;;;;30.80;45.10;;;;;;5093756;28;19908;-81
2022/09/25 13:58:00;;;;;;;;;;;28.60;47.80;;;;;;5093757;28;19923;-80
2022/09/25 14:00:40;;;;;;;;;;;27.50;50.10;;;;;;5085709;28;19915;-80
2022/09/25 14:03:30;;;;;;;;;;;26.80;50.90;;;;;;5092190;28;19912;-79
2022/09/25 14:06:00;;;;;;;;;;;32.10;51.40;;;;;;5094060;28;20041;-80
2022/09/25 14:08:27;;;;;;;;;;;38.70;42.70;;;;;;5092533;28;20344;-79
2022/09/25 14:10:53;;;;;;;;;;;42.00;38.80;;;;;;5093659;28;19914;-81
2022/09/25 14:13:24;;;;;;;;;;;42.90;36.70;;;;;;5093862;28;20397;-83
2022/09/25 14:15:50;;;;;;;;;;;43.10;36.40;;;;;;5094010;28;19942;-81
2022/09/25 14:18:31;;;;;;;;;;;43.40;36.70;;;;;;5093589;28;20274;-80
2022/09/25 14:20:59;;;;;;;;;;;42.50;35.80;;;;;;5093692;28;19933;-78
2022/09/25 14:23:27;;;;;;;;;;;37.70;37.90;;;;;;5093788;28;19912;-77
2022/09/25 14:25:57;;;;;;;;;;;33.20;40.40;;;;;;5097192;28;19915;-79
2022/09/25 14:28:24;;;;;;;;;;;32.80;41.60;;;;;;5097742;28;19962;-81
2022/09/25 14:31:08;;;;;;;;;;;29.80;43.30;;;;;;5097558;28;19912;-82
2022/09/25 14:33:49;;;;;;;;;;;28.70;45.00;;;;;;5097668;28;20056;-79
2022/09/25 14:36:36;;;;;;;;;;;28.20;46.40;;;;;;5097586;28;19912;-79
2022/09/25 14:39:20;;;;;;;;;;;31.60;45.10;;;;;;5097237;28;19908;-81
2022/09/25 14:41:54;;;;;;;;;;;31.60;43.30;;;;;;5097436;28;19908;-82
2022/09/25 14:44:34;;;;;;;;;;;30.60;43.70;;;;;;5097848;28;19981;-80
2022/09/25 14:47:01;;;;;;;;;;;29.00;45.30;;;;;;5097473;28;20038;-80
2022/09/25 14:49:29;;;;;;;;;;;27.80;46.70;;;;;;5095698;28;20342;-79
2022/09/25 14:52:00;;;;;;;;;;;26.70;47.70;;;;;;5097449;28;19908;-79
2022/09/25 14:54:29;;;;;;;;;;;25.10;52.20;;;;;;5097084;28;20322;-80
2022/09/25 14:56:56;;;;;;;;;;;24.30;55.80;;;;;;5096966;28;19932;-79